sensor_id;sensor_type;location;lat;lon;timestamp;P1;durP1;ratioP1;P2;durP2;ratioP2
13230;SDS011;6681;53.254;10.398;2022-12-18T00:03:56;28.23;;;18.43;;
13230;SDS011;6681;53.254;10.398;2022-12-18T00:06:23;31.23;;;17.67;;
13230;SDS011;6681;53.254;10.398;2022-12-18T00:08:50;26.20;;;18.27;;
13230;SDS011;6681;53.254;10.398;2022-12-18T00:11:20;23.00;;;15.07;;
13230;SDS011;6681;53.254;10.398;2022-12-18T00:13:47;24.83;;;17.87;;
13230;SDS011;6681;53.254;10.398;2022-12-18T00:16:14;22.37;;;15.37;;
13230;SDS011;6681;53.254;10.398;2022-12-18T00:18:45;25.40;;;17.07;;
13230;SDS011;6681;53.254;10.398;2022-12-18T00:21:11;27.67;;;16.23;;
13230;SDS011;6681;53.254;10.398;2022-12-18T00:23:38;24.83;;;17.40;;
13230;SDS011;6681;53.254;10.398;2022-12-18T00:26:06;31.93;;;19.43;;
13230;SDS011;6681;53.254;10.398;2022-12-18T00:28:35;26.07;;;17.63;;
13230;SDS011;6681;53.254;10.398;2022-12-18T00:33:27;34.30;;;19.70;;
13230;SDS011;6681;53.254;10.398;2022-12-18T00:35:53;28.90;;;17.77;;
13230;SDS011;6681;53.254;10.398;2022-12-18T00:38:19;32.43;;;18.87;;
13230;SDS011;6681;53.254;10.398;2022-12-18T00:40:44;27.00;;;17.70;;
13230;SDS011;6681;53.254;10.398;2022-12-18T00:43:10;27.83;;;19.43;;
13230;SDS011;6681;53.254;10.398;2022-12-18T00:45:36;31.57;;;19.23;;
13230;SDS011;6681;53.254;10.398;2022-12-18T00:48:04;34.53;;;21.37;;
13230;SDS011;6681;53.254;10.398;2022-12-18T00:50:32;34.37;;;21.83;;
13230;SDS011;6681;53.254;10.398;2022-12-18T00:52:58;34.70;;;20.73;;
13230;SDS011;6681;53.254;10.398;2022-12-18T00:55:23;30.07;;;19.30;;
13230;SDS011;6681;53.254;10.398;2022-12-18T00:57:50;29.53;;;18.43;;
13230;SDS011;6681;53.254;10.398;2022-12-18T01:00:17;30.43;;;20.30;;
13230;SDS011;6681;53.254;10.398;2022-12-18T01:02:43;30.00;;;20.70;;
13230;SDS011;6681;53.254;10.398;2022-12-18T01:05:10;38.40;;;20.23;;
13230;SDS011;6681;53.254;10.398;2022-12-18T01:07:37;35.13;;;20.43;;
13230;SDS011;6681;53.254;10.398;2022-12-18T01:10:03;30.73;;;20.67;;
13230;SDS011;6681;53.254;10.398;2022-12-18T01:12:30;30.70;;;19.57;;
13230;SDS011;6681;53.254;10.398;2022-12-18T01:14:56;27.13;;;17.93;;
13230;SDS011;6681;53.254;10.398;2022-12-18T01:17:22;38.00;;;20.23;;
13230;SDS011;6681;53.254;10.398;2022-12-18T01:19:48;25.93;;;19.00;;
13230;SDS011;6681;53.254;10.398;2022-12-18T01:22:19;30.87;;;19.00;;
13230;SDS011;6681;53.254;10.398;2022-12-18T01:24:45;26.37;;;17.77;;
13230;SDS011;6681;53.254;10.398;2022-12-18T01:27:11;31.67;;;20.17;;
13230;SDS011;6681;53.254;10.398;2022-12-18T01:29:36;29.07;;;19.27;;
13230;SDS011;6681;53.254;10.398;2022-12-18T01:32:02;28.13;;;19.07;;
13230;SDS011;6681;53.254;10.398;2022-12-18T01:34:27;32.03;;;19.80;;
13230;SDS011;6681;53.254;10.398;2022-12-18T01:36:53;35.73;;;19.93;;
13230;SDS011;6681;53.254;10.398;2022-12-18T01:39:19;29.97;;;20.20;;
13230;SDS011;6681;53.254;10.398;2022-12-18T01:41:45;31.13;;;20.20;;
13230;SDS011;6681;53.254;10.398;2022-12-18T01:50:04;34.97;;;21.73;;
13230;SDS011;6681;53.254;10.398;2022-12-18T01:52:52;35.20;;;20.07;;
13230;SDS011;6681;53.254;10.398;2022-12-18T01:55:22;35.90;;;21.80;;
13230;SDS011;6681;53.254;10.398;2022-12-18T01:57:54;32.97;;;21.77;;
13230;SDS011;6681;53.254;10.398;2022-12-18T02:00:22;39.37;;;22.20;;
13230;SDS011;6681;53.254;10.398;2022-12-18T02:02:49;43.03;;;22.00;;
13230;SDS011;6681;53.254;10.398;2022-12-18T02:05:16;29.80;;;21.07;;
13230;SDS011;6681;53.254;10.398;2022-12-18T02:13:11;34.47;;;21.93;;
13230;SDS011;6681;53.254;10.398;2022-12-18T02:18:45;37.07;;;21.73;;
13230;SDS011;6681;53.254;10.398;2022-12-18T02:21:28;37.50;;;20.53;;
13230;SDS011;6681;53.254;10.398;2022-12-18T02:26:45;34.37;;;20.40;;
13230;SDS011;6681;53.254;10.398;2022-12-18T02:29:18;35.93;;;20.90;;
13230;SDS011;6681;53.254;10.398;2022-12-18T02:31:56;30.77;;;19.23;;
13230;SDS011;6681;53.254;10.398;2022-12-18T02:34:27;36.13;;;20.40;;
13230;SDS011;6681;53.254;10.398;2022-12-18T02:36:56;31.83;;;21.00;;
13230;SDS011;6681;53.254;10.398;2022-12-18T02:39:25;42.43;;;21.13;;
13230;SDS011;6681;53.254;10.398;2022-12-18T02:41:53;30.47;;;20.17;;
13230;SDS011;6681;53.254;10.398;2022-12-18T02:44:19;33.10;;;20.93;;
13230;SDS011;6681;53.254;10.398;2022-12-18T02:46:46;34.63;;;21.00;;
13230;SDS011;6681;53.254;10.398;2022-12-18T02:49:38;36.93;;;24.37;;
13230;SDS011;6681;53.254;10.398;2022-12-18T02:52:24;28.73;;;22.53;;
13230;SDS011;6681;53.254;10.398;2022-12-18T02:57:46;33.57;;;21.37;;
13230;SDS011;6681;53.254;10.398;2022-12-18T03:00:21;34.90;;;22.80;;
13230;SDS011;6681;53.254;10.398;2022-12-18T03:02:58;41.20;;;22.77;;
13230;SDS011;6681;53.254;10.398;2022-12-18T03:05:33;40.50;;;24.93;;
13230;SDS011;6681;53.254;10.398;2022-12-18T03:08:05;32.70;;;23.53;;
13230;SDS011;6681;53.254;10.398;2022-12-18T03:10:45;36.27;;;22.23;;
13230;SDS011;6681;53.254;10.398;2022-12-18T03:13:40;47.73;;;23.23;;
13230;SDS011;6681;53.254;10.398;2022-12-18T03:16:09;32.13;;;21.03;;
13230;SDS011;6681;53.254;10.398;2022-12-18T03:18:47;41.03;;;24.57;;
13230;SDS011;6681;53.254;10.398;2022-12-18T03:21:21;45.07;;;25.40;;
13230;SDS011;6681;53.254;10.398;2022-12-18T03:23:51;41.07;;;25.17;;
13230;SDS011;6681;53.254;10.398;2022-12-18T03:26:19;36.33;;;22.53;;
13230;SDS011;6681;53.254;10.398;2022-12-18T03:28:50;39.77;;;23.53;;
13230;SDS011;6681;53.254;10.398;2022-12-18T03:31:19;43.80;;;24.80;;
13230;SDS011;6681;53.254;10.398;2022-12-18T03:36:19;39.43;;;24.30;;
13230;SDS011;6681;53.254;10.398;2022-12-18T03:38:45;43.57;;;25.17;;
13230;SDS011;6681;53.254;10.398;2022-12-18T03:47:16;38.07;;;23.53;;
13230;SDS011;6681;53.254;10.398;2022-12-18T03:53:00;48.90;;;23.90;;
13230;SDS011;6681;53.254;10.398;2022-12-18T03:55:29;42.33;;;24.03;;
13230;SDS011;6681;53.254;10.398;2022-12-18T03:57:58;37.57;;;23.67;;
13230;SDS011;6681;53.254;10.398;2022-12-18T04:00:26;40.83;;;23.10;;
13230;SDS011;6681;53.254;10.398;2022-12-18T04:02:54;35.23;;;22.37;;
13230;SDS011;6681;53.254;10.398;2022-12-18T04:05:22;35.83;;;23.97;;
13230;SDS011;6681;53.254;10.398;2022-12-18T04:07:50;40.17;;;23.57;;
13230;SDS011;6681;53.254;10.398;2022-12-18T04:10:19;40.93;;;24.20;;
13230;SDS011;6681;53.254;10.398;2022-12-18T04:12:45;36.93;;;23.47;;
13230;SDS011;6681;53.254;10.398;2022-12-18T04:15:11;32.73;;;21.60;;
13230;SDS011;6681;53.254;10.398;2022-12-18T04:17:37;33.83;;;22.67;;
13230;SDS011;6681;53.254;10.398;2022-12-18T04:20:03;42.10;;;23.40;;
13230;SDS011;6681;53.254;10.398;2022-12-18T04:22:29;40.57;;;23.87;;
13230;SDS011;6681;53.254;10.398;2022-12-18T04:24:55;38.60;;;23.70;;
13230;SDS011;6681;53.254;10.398;2022-12-18T04:27:21;40.83;;;23.83;;
13230;SDS011;6681;53.254;10.398;2022-12-18T04:29:47;41.97;;;23.37;;
13230;SDS011;6681;53.254;10.398;2022-12-18T04:32:12;38.70;;;25.70;;
13230;SDS011;6681;53.254;10.398;2022-12-18T04:34:38;47.43;;;27.23;;
13230;SDS011;6681;53.254;10.398;2022-12-18T04:37:04;34.50;;;23.20;;
13230;SDS011;6681;53.254;10.398;2022-12-18T04:39:29;40.83;;;25.57;;
13230;SDS011;6681;53.254;10.398;2022-12-18T04:41:55;39.90;;;23.13;;
13230;SDS011;6681;53.254;10.398;2022-12-18T04:44:21;43.93;;;24.80;;
13230;SDS011;6681;53.254;10.398;2022-12-18T04:46:46;46.30;;;25.63;;
13230;SDS011;6681;53.254;10.398;2022-12-18T04:49:12;40.07;;;24.67;;
13230;SDS011;6681;53.254;10.398;2022-12-18T04:51:38;40.83;;;24.70;;
13230;SDS011;6681;53.254;10.398;2022-12-18T04:54:04;46.70;;;24.53;;
13230;SDS011;6681;53.254;10.398;2022-12-18T04:56:30;43.60;;;25.57;;
13230;SDS011;6681;53.254;10.398;2022-12-18T04:58:56;39.50;;;22.87;;
13230;SDS011;6681;53.254;10.398;2022-12-18T05:01:22;41.90;;;24.60;;
13230;SDS011;6681;53.254;10.398;2022-12-18T05:03:48;46.83;;;24.27;;
13230;SDS011;6681;53.254;10.398;2022-12-18T05:06:13;44.57;;;27.93;;
13230;SDS011;6681;53.254;10.398;2022-12-18T05:08:39;41.77;;;24.17;;
13230;SDS011;6681;53.254;10.398;2022-12-18T05:11:06;42.97;;;25.07;;
13230;SDS011;6681;53.254;10.398;2022-12-18T05:13:34;46.20;;;24.90;;
13230;SDS011;6681;53.254;10.398;2022-12-18T05:16:01;45.87;;;27.13;;
13230;SDS011;6681;53.254;10.398;2022-12-18T05:18:27;41.03;;;24.03;;
13230;SDS011;6681;53.254;10.398;2022-12-18T05:20:53;37.23;;;22.37;;
13230;SDS011;6681;53.254;10.398;2022-12-18T05:23:19;35.43;;;23.70;;
13230;SDS011;6681;53.254;10.398;2022-12-18T05:25:53;44.20;;;24.57;;
13230;SDS011;6681;53.254;10.398;2022-12-18T05:28:20;42.47;;;24.27;;
13230;SDS011;6681;53.254;10.398;2022-12-18T05:30:50;42.63;;;24.93;;
13230;SDS011;6681;53.254;10.398;2022-12-18T05:33:18;44.50;;;23.17;;
13230;SDS011;6681;53.254;10.398;2022-12-18T05:35:44;39.20;;;21.63;;
13230;SDS011;6681;53.254;10.398;2022-12-18T05:38:36;38.43;;;21.60;;
13230;SDS011;6681;53.254;10.398;2022-12-18T05:41:03;45.47;;;23.70;;
13230;SDS011;6681;53.254;10.398;2022-12-18T05:43:29;44.07;;;22.43;;
13230;SDS011;6681;53.254;10.398;2022-12-18T05:45:55;40.47;;;23.30;;
13230;SDS011;6681;53.254;10.398;2022-12-18T05:48:22;43.37;;;22.93;;
13230;SDS011;6681;53.254;10.398;2022-12-18T05:50:48;41.63;;;24.57;;
13230;SDS011;6681;53.254;10.398;2022-12-18T05:53:15;39.17;;;22.17;;
13230;SDS011;6681;53.254;10.398;2022-12-18T05:55:42;39.87;;;24.00;;
13230;SDS011;6681;53.254;10.398;2022-12-18T05:58:09;42.00;;;24.63;;
13230;SDS011;6681;53.254;10.398;2022-12-18T06:00:37;43.30;;;24.43;;
13230;SDS011;6681;53.254;10.398;2022-12-18T06:03:06;41.77;;;24.33;;
13230;SDS011;6681;53.254;10.398;2022-12-18T06:05:39;42.03;;;23.43;;
13230;SDS011;6681;53.254;10.398;2022-12-18T06:08:06;42.80;;;23.70;;
13230;SDS011;6681;53.254;10.398;2022-12-18T06:10:33;39.87;;;24.87;;
13230;SDS011;6681;53.254;10.398;2022-12-18T06:12:59;39.00;;;25.37;;
13230;SDS011;6681;53.254;10.398;2022-12-18T06:15:25;41.43;;;23.37;;
13230;SDS011;6681;53.254;10.398;2022-12-18T06:17:51;39.90;;;23.33;;
13230;SDS011;6681;53.254;10.398;2022-12-18T06:20:17;38.47;;;23.10;;
13230;SDS011;6681;53.254;10.398;2022-12-18T06:22:42;43.63;;;23.40;;
13230;SDS011;6681;53.254;10.398;2022-12-18T06:25:08;39.57;;;22.70;;
13230;SDS011;6681;53.254;10.398;2022-12-18T06:27:39;39.40;;;22.03;;
13230;SDS011;6681;53.254;10.398;2022-12-18T06:30:05;36.37;;;21.93;;
13230;SDS011;6681;53.254;10.398;2022-12-18T06:32:31;37.47;;;23.37;;
13230;SDS011;6681;53.254;10.398;2022-12-18T06:34:57;37.57;;;23.13;;
13230;SDS011;6681;53.254;10.398;2022-12-18T06:37:23;40.60;;;23.80;;
13230;SDS011;6681;53.254;10.398;2022-12-18T06:39:54;39.27;;;22.13;;
13230;SDS011;6681;53.254;10.398;2022-12-18T06:42:21;45.00;;;24.73;;
13230;SDS011;6681;53.254;10.398;2022-12-18T06:44:47;40.80;;;24.43;;
13230;SDS011;6681;53.254;10.398;2022-12-18T06:47:13;45.10;;;23.60;;
13230;SDS011;6681;53.254;10.398;2022-12-18T06:49:38;38.00;;;23.83;;
13230;SDS011;6681;53.254;10.398;2022-12-18T06:52:04;35.03;;;21.90;;
13230;SDS011;6681;53.254;10.398;2022-12-18T06:54:29;40.87;;;22.33;;
13230;SDS011;6681;53.254;10.398;2022-12-18T06:56:55;37.73;;;23.87;;
13230;SDS011;6681;53.254;10.398;2022-12-18T06:59:21;40.93;;;22.40;;
13230;SDS011;6681;53.254;10.398;2022-12-18T07:01:46;44.30;;;24.00;;
13230;SDS011;6681;53.254;10.398;2022-12-18T07:04:12;42.47;;;22.80;;
13230;SDS011;6681;53.254;10.398;2022-12-18T07:06:38;38.77;;;22.23;;
13230;SDS011;6681;53.254;10.398;2022-12-18T07:09:03;45.33;;;24.27;;
13230;SDS011;6681;53.254;10.398;2022-12-18T07:11:29;37.63;;;23.23;;
13230;SDS011;6681;53.254;10.398;2022-12-18T07:14:00;45.93;;;23.97;;
13230;SDS011;6681;53.254;10.398;2022-12-18T07:16:25;43.77;;;23.90;;
13230;SDS011;6681;53.254;10.398;2022-12-18T07:18:54;44.00;;;26.00;;
13230;SDS011;6681;53.254;10.398;2022-12-18T07:21:20;48.67;;;27.17;;
13230;SDS011;6681;53.254;10.398;2022-12-18T07:23:47;44.10;;;26.47;;
13230;SDS011;6681;53.254;10.398;2022-12-18T07:26:13;37.87;;;21.10;;
13230;SDS011;6681;53.254;10.398;2022-12-18T07:28:41;40.93;;;24.23;;
13230;SDS011;6681;53.254;10.398;2022-12-18T07:31:11;41.77;;;23.83;;
13230;SDS011;6681;53.254;10.398;2022-12-18T07:33:39;46.33;;;24.13;;
13230;SDS011;6681;53.254;10.398;2022-12-18T07:36:06;46.27;;;26.57;;
13230;SDS011;6681;53.254;10.398;2022-12-18T07:38:32;38.43;;;22.60;;
13230;SDS011;6681;53.254;10.398;2022-12-18T07:41:03;35.87;;;22.90;;
13230;SDS011;6681;53.254;10.398;2022-12-18T07:43:31;38.13;;;22.20;;
13230;SDS011;6681;53.254;10.398;2022-12-18T07:45:57;41.37;;;23.77;;
13230;SDS011;6681;53.254;10.398;2022-12-18T07:48:23;41.63;;;24.07;;
13230;SDS011;6681;53.254;10.398;2022-12-18T07:50:49;48.57;;;24.90;;
13230;SDS011;6681;53.254;10.398;2022-12-18T07:53:14;51.00;;;22.10;;
13230;SDS011;6681;53.254;10.398;2022-12-18T07:55:41;43.17;;;24.07;;
13230;SDS011;6681;53.254;10.398;2022-12-18T07:58:07;40.20;;;24.53;;
13230;SDS011;6681;53.254;10.398;2022-12-18T08:00:33;38.27;;;25.83;;
13230;SDS011;6681;53.254;10.398;2022-12-18T08:02:59;42.77;;;24.70;;
13230;SDS011;6681;53.254;10.398;2022-12-18T08:05:25;38.17;;;22.50;;
13230;SDS011;6681;53.254;10.398;2022-12-18T08:07:51;48.57;;;27.10;;
13230;SDS011;6681;53.254;10.398;2022-12-18T08:10:17;51.57;;;28.03;;
13230;SDS011;6681;53.254;10.398;2022-12-18T08:12:43;52.90;;;25.00;;
13230;SDS011;6681;53.254;10.398;2022-12-18T08:15:09;50.67;;;22.70;;
13230;SDS011;6681;53.254;10.398;2022-12-18T08:17:34;47.07;;;26.80;;
13230;SDS011;6681;53.254;10.398;2022-12-18T08:20:00;45.00;;;24.03;;
13230;SDS011;6681;53.254;10.398;2022-12-18T08:22:26;39.00;;;23.53;;
13230;SDS011;6681;53.254;10.398;2022-12-18T08:24:52;47.30;;;24.47;;
13230;SDS011;6681;53.254;10.398;2022-12-18T08:27:17;41.97;;;24.57;;
13230;SDS011;6681;53.254;10.398;2022-12-18T08:29:43;45.80;;;23.87;;
13230;SDS011;6681;53.254;10.398;2022-12-18T08:32:08;49.57;;;26.10;;
13230;SDS011;6681;53.254;10.398;2022-12-18T08:34:34;47.07;;;25.03;;
13230;SDS011;6681;53.254;10.398;2022-12-18T08:37:00;48.63;;;28.00;;
13230;SDS011;6681;53.254;10.398;2022-12-18T08:39:26;54.03;;;27.23;;
13230;SDS011;6681;53.254;10.398;2022-12-18T08:41:51;54.77;;;29.10;;
13230;SDS011;6681;53.254;10.398;2022-12-18T08:44:35;49.40;;;25.13;;
13230;SDS011;6681;53.254;10.398;2022-12-18T08:47:04;41.87;;;24.10;;
13230;SDS011;6681;53.254;10.398;2022-12-18T08:49:31;47.23;;;25.23;;
13230;SDS011;6681;53.254;10.398;2022-12-18T08:51:57;43.47;;;24.13;;
13230;SDS011;6681;53.254;10.398;2022-12-18T08:54:23;51.00;;;26.40;;
13230;SDS011;6681;53.254;10.398;2022-12-18T08:56:48;50.23;;;25.20;;
13230;SDS011;6681;53.254;10.398;2022-12-18T08:59:15;44.37;;;25.97;;
13230;SDS011;6681;53.254;10.398;2022-12-18T09:01:41;46.77;;;24.57;;
13230;SDS011;6681;53.254;10.398;2022-12-18T09:04:08;41.40;;;25.00;;
13230;SDS011;6681;53.254;10.398;2022-12-18T09:06:34;47.23;;;24.27;;
13230;SDS011;6681;53.254;10.398;2022-12-18T09:09:00;45.27;;;23.10;;
13230;SDS011;6681;53.254;10.398;2022-12-18T09:11:26;42.53;;;25.30;;
13230;SDS011;6681;53.254;10.398;2022-12-18T09:13:53;41.33;;;24.13;;
13230;SDS011;6681;53.254;10.398;2022-12-18T09:16:20;46.60;;;25.50;;
13230;SDS011;6681;53.254;10.398;2022-12-18T09:18:49;42.23;;;22.20;;
13230;SDS011;6681;53.254;10.398;2022-12-18T09:21:24;46.87;;;26.17;;
13230;SDS011;6681;53.254;10.398;2022-12-18T09:23:51;47.30;;;26.00;;
13230;SDS011;6681;53.254;10.398;2022-12-18T09:26:18;48.70;;;25.93;;
13230;SDS011;6681;53.254;10.398;2022-12-18T09:28:44;46.23;;;24.23;;
13230;SDS011;6681;53.254;10.398;2022-12-18T09:31:11;46.60;;;23.67;;
13230;SDS011;6681;53.254;10.398;2022-12-18T09:33:41;44.60;;;23.90;;
13230;SDS011;6681;53.254;10.398;2022-12-18T09:36:08;41.03;;;24.57;;
13230;SDS011;6681;53.254;10.398;2022-12-18T09:38:35;44.60;;;24.73;;
13230;SDS011;6681;53.254;10.398;2022-12-18T09:43:49;45.07;;;22.80;;
13230;SDS011;6681;53.254;10.398;2022-12-18T09:46:24;42.97;;;23.97;;
13230;SDS011;6681;53.254;10.398;2022-12-18T09:48:54;47.73;;;23.20;;
13230;SDS011;6681;53.254;10.398;2022-12-18T09:51:27;46.57;;;25.60;;
13230;SDS011;6681;53.254;10.398;2022-12-18T09:53:58;46.23;;;21.97;;
13230;SDS011;6681;53.254;10.398;2022-12-18T09:56:42;41.43;;;22.53;;
13230;SDS011;6681;53.254;10.398;2022-12-18T09:59:15;41.53;;;21.90;;
13230;SDS011;6681;53.254;10.398;2022-12-18T10:01:48;45.57;;;23.83;;
13230;SDS011;6681;53.254;10.398;2022-12-18T10:04:14;40.80;;;22.50;;
13230;SDS011;6681;53.254;10.398;2022-12-18T10:06:54;43.73;;;26.60;;
13230;SDS011;6681;53.254;10.398;2022-12-18T10:09:43;41.67;;;25.80;;
13230;SDS011;6681;53.254;10.398;2022-12-18T10:17:51;48.30;;;24.23;;
13230;SDS011;6681;53.254;10.398;2022-12-18T10:20:29;40.23;;;23.03;;
13230;SDS011;6681;53.254;10.398;2022-12-18T10:23:00;45.57;;;24.13;;
13230;SDS011;6681;53.254;10.398;2022-12-18T10:25:50;40.97;;;23.10;;
13230;SDS011;6681;53.254;10.398;2022-12-18T10:28:22;46.53;;;23.23;;
13230;SDS011;6681;53.254;10.398;2022-12-18T10:30:49;42.50;;;22.83;;
13230;SDS011;6681;53.254;10.398;2022-12-18T10:33:16;40.23;;;25.40;;
13230;SDS011;6681;53.254;10.398;2022-12-18T10:35:45;38.77;;;23.10;;
13230;SDS011;6681;53.254;10.398;2022-12-18T10:40:52;37.60;;;20.93;;
13230;SDS011;6681;53.254;10.398;2022-12-18T10:51:33;38.17;;;21.83;;
13230;SDS011;6681;53.254;10.398;2022-12-18T10:54:04;35.13;;;22.00;;
13230;SDS011;6681;53.254;10.398;2022-12-18T10:56:37;37.77;;;20.90;;
13230;SDS011;6681;53.254;10.398;2022-12-18T10:59:04;40.53;;;22.33;;
13230;SDS011;6681;53.254;10.398;2022-12-18T11:04:13;41.67;;;21.00;;
13230;SDS011;6681;53.254;10.398;2022-12-18T11:06:52;36.40;;;19.90;;
13230;SDS011;6681;53.254;10.398;2022-12-18T11:09:21;39.73;;;21.17;;
13230;SDS011;6681;53.254;10.398;2022-12-18T11:11:49;38.17;;;21.73;;
13230;SDS011;6681;53.254;10.398;2022-12-18T11:14:20;41.40;;;21.70;;
13230;SDS011;6681;53.254;10.398;2022-12-18T11:16:58;35.13;;;19.90;;
13230;SDS011;6681;53.254;10.398;2022-12-18T11:19:28;35.23;;;20.20;;
13230;SDS011;6681;53.254;10.398;2022-12-18T11:24:58;38.67;;;19.60;;
13230;SDS011;6681;53.254;10.398;2022-12-18T11:27:26;38.27;;;19.10;;
13230;SDS011;6681;53.254;10.398;2022-12-18T11:30:06;39.97;;;22.00;;
13230;SDS011;6681;53.254;10.398;2022-12-18T11:32:49;36.20;;;20.37;;
13230;SDS011;6681;53.254;10.398;2022-12-18T11:41:32;42.90;;;24.43;;
13230;SDS011;6681;53.254;10.398;2022-12-18T11:43:53;37.87;;;19.03;;
13230;SDS011;6681;53.254;10.398;2022-12-18T11:46:37;37.07;;;20.57;;
13230;SDS011;6681;53.254;10.398;2022-12-18T11:49:36;36.97;;;18.33;;
13230;SDS011;6681;53.254;10.398;2022-12-18T11:54:41;38.30;;;20.73;;
13230;SDS011;6681;53.254;10.398;2022-12-18T12:00:14;35.60;;;19.57;;
13230;SDS011;6681;53.254;10.398;2022-12-18T12:05:59;36.67;;;19.47;;
13230;SDS011;6681;53.254;10.398;2022-12-18T12:09:37;36.50;;;18.47;;
13230;SDS011;6681;53.254;10.398;2022-12-18T12:17:25;38.17;;;20.03;;
13230;SDS011;6681;53.254;10.398;2022-12-18T12:22:37;30.70;;;18.37;;
13230;SDS011;6681;53.254;10.398;2022-12-18T12:25:28;36.00;;;19.47;;
13230;SDS011;6681;53.254;10.398;2022-12-18T12:28:13;37.13;;;20.10;;
13230;SDS011;6681;53.254;10.398;2022-12-18T12:39:49;36.60;;;17.40;;
13230;SDS011;6681;53.254;10.398;2022-12-18T12:45:36;38.67;;;19.53;;
13230;SDS011;6681;53.254;10.398;2022-12-18T12:48:34;38.53;;;18.87;;
13230;SDS011;6681;53.254;10.398;2022-12-18T12:51:37;37.07;;;20.23;;
13230;SDS011;6681;53.254;10.398;2022-12-18T12:54:06;36.37;;;16.80;;
13230;SDS011;6681;53.254;10.398;2022-12-18T12:56:52;34.47;;;19.37;;
13230;SDS011;6681;53.254;10.398;2022-12-18T12:59:37;39.93;;;20.73;;
13230;SDS011;6681;53.254;10.398;2022-12-18T13:02:28;37.47;;;19.87;;
13230;SDS011;6681;53.254;10.398;2022-12-18T13:07:35;37.43;;;20.93;;
13230;SDS011;6681;53.254;10.398;2022-12-18T13:15:44;33.70;;;19.23;;
13230;SDS011;6681;53.254;10.398;2022-12-18T13:18:19;42.77;;;21.77;;
13230;SDS011;6681;53.254;10.398;2022-12-18T13:20:48;41.90;;;19.77;;
13230;SDS011;6681;53.254;10.398;2022-12-18T13:25:48;38.83;;;20.73;;
13230;SDS011;6681;53.254;10.398;2022-12-18T13:28:57;36.23;;;20.90;;
13230;SDS011;6681;53.254;10.398;2022-12-18T13:34:04;39.33;;;20.87;;
13230;SDS011;6681;53.254;10.398;2022-12-18T13:36:45;48.63;;;23.27;;
13230;SDS011;6681;53.254;10.398;2022-12-18T13:41:44;40.53;;;22.30;;
13230;SDS011;6681;53.254;10.398;2022-12-18T13:44:12;43.27;;;23.23;;
13230;SDS011;6681;53.254;10.398;2022-12-18T13:46:50;49.87;;;23.53;;
13230;SDS011;6681;53.254;10.398;2022-12-18T13:51:53;45.60;;;23.90;;
13230;SDS011;6681;53.254;10.398;2022-12-18T13:57:03;46.03;;;25.00;;
13230;SDS011;6681;53.254;10.398;2022-12-18T13:59:37;42.87;;;22.23;;
13230;SDS011;6681;53.254;10.398;2022-12-18T14:02:23;46.47;;;23.60;;
13230;SDS011;6681;53.254;10.398;2022-12-18T14:04:50;46.50;;;23.50;;
13230;SDS011;6681;53.254;10.398;2022-12-18T14:07:21;47.63;;;24.57;;
13230;SDS011;6681;53.254;10.398;2022-12-18T14:09:51;50.63;;;23.60;;
13230;SDS011;6681;53.254;10.398;2022-12-18T14:17:55;50.17;;;23.27;;
13230;SDS011;6681;53.254;10.398;2022-12-18T14:20:22;46.83;;;23.17;;
13230;SDS011;6681;53.254;10.398;2022-12-18T14:22:50;45.73;;;23.57;;
13230;SDS011;6681;53.254;10.398;2022-12-18T14:27:52;51.70;;;24.87;;
13230;SDS011;6681;53.254;10.398;2022-12-18T14:30:35;45.27;;;23.07;;
13230;SDS011;6681;53.254;10.398;2022-12-18T14:35:33;49.83;;;22.27;;
13230;SDS011;6681;53.254;10.398;2022-12-18T14:40:36;40.23;;;21.67;;
13230;SDS011;6681;53.254;10.398;2022-12-18T14:43:02;42.87;;;20.77;;
13230;SDS011;6681;53.254;10.398;2022-12-18T14:45:34;39.73;;;21.73;;
13230;SDS011;6681;53.254;10.398;2022-12-18T14:50:45;43.23;;;22.27;;
13230;SDS011;6681;53.254;10.398;2022-12-18T14:53:22;42.77;;;23.67;;
13230;SDS011;6681;53.254;10.398;2022-12-18T14:55:53;45.90;;;24.37;;
13230;SDS011;6681;53.254;10.398;2022-12-18T14:58:19;45.87;;;22.77;;
13230;SDS011;6681;53.254;10.398;2022-12-18T15:00:44;42.93;;;21.27;;
13230;SDS011;6681;53.254;10.398;2022-12-18T15:03:12;41.50;;;22.13;;
13230;SDS011;6681;53.254;10.398;2022-12-18T15:05:45;45.10;;;23.07;;
13230;SDS011;6681;53.254;10.398;2022-12-18T15:08:27;47.33;;;23.50;;
13230;SDS011;6681;53.254;10.398;2022-12-18T15:11:00;47.70;;;22.23;;
13230;SDS011;6681;53.254;10.398;2022-12-18T15:13:26;40.83;;;21.53;;
13230;SDS011;6681;53.254;10.398;2022-12-18T15:15:52;44.20;;;23.03;;
13230;SDS011;6681;53.254;10.398;2022-12-18T15:18:22;37.80;;;22.63;;
13230;SDS011;6681;53.254;10.398;2022-12-18T15:20:58;41.40;;;22.90;;
13230;SDS011;6681;53.254;10.398;2022-12-18T15:23:45;40.50;;;21.57;;
13230;SDS011;6681;53.254;10.398;2022-12-18T15:26:13;42.73;;;21.63;;
13230;SDS011;6681;53.254;10.398;2022-12-18T15:28:48;34.33;;;21.10;;
13230;SDS011;6681;53.254;10.398;2022-12-18T15:33:41;46.30;;;21.63;;
13230;SDS011;6681;53.254;10.398;2022-12-18T15:36:11;40.97;;;24.47;;
13230;SDS011;6681;53.254;10.398;2022-12-18T15:38:38;35.20;;;18.50;;
13230;SDS011;6681;53.254;10.398;2022-12-18T15:41:12;36.83;;;19.87;;
13230;SDS011;6681;53.254;10.398;2022-12-18T15:43:39;39.77;;;20.57;;
13230;SDS011;6681;53.254;10.398;2022-12-18T15:46:21;44.77;;;21.80;;
13230;SDS011;6681;53.254;10.398;2022-12-18T15:48:48;48.80;;;24.33;;
13230;SDS011;6681;53.254;10.398;2022-12-18T15:51:17;44.63;;;22.60;;
13230;SDS011;6681;53.254;10.398;2022-12-18T15:53:48;38.10;;;22.97;;
13230;SDS011;6681;53.254;10.398;2022-12-18T15:56:16;36.67;;;21.23;;
13230;SDS011;6681;53.254;10.398;2022-12-18T15:59:02;47.70;;;21.17;;
13230;SDS011;6681;53.254;10.398;2022-12-18T16:01:30;35.40;;;19.40;;
13230;SDS011;6681;53.254;10.398;2022-12-18T16:03:56;39.83;;;22.03;;
13230;SDS011;6681;53.254;10.398;2022-12-18T16:06:22;43.93;;;19.60;;
13230;SDS011;6681;53.254;10.398;2022-12-18T16:08:48;35.00;;;20.17;;
13230;SDS011;6681;53.254;10.398;2022-12-18T16:11:27;43.53;;;22.33;;
13230;SDS011;6681;53.254;10.398;2022-12-18T16:16:43;38.13;;;21.03;;
13230;SDS011;6681;53.254;10.398;2022-12-18T16:19:10;37.77;;;23.33;;
13230;SDS011;6681;53.254;10.398;2022-12-18T16:21:36;36.10;;;21.17;;
13230;SDS011;6681;53.254;10.398;2022-12-18T16:24:05;35.17;;;21.47;;
13230;SDS011;6681;53.254;10.398;2022-12-18T16:26:57;36.77;;;19.83;;
13230;SDS011;6681;53.254;10.398;2022-12-18T16:29:24;37.03;;;20.47;;
13230;SDS011;6681;53.254;10.398;2022-12-18T16:32:01;39.40;;;22.70;;
13230;SDS011;6681;53.254;10.398;2022-12-18T16:34:27;33.30;;;18.40;;
13230;SDS011;6681;53.254;10.398;2022-12-18T16:37:01;36.07;;;18.87;;
13230;SDS011;6681;53.254;10.398;2022-12-18T16:39:32;33.43;;;17.97;;
13230;SDS011;6681;53.254;10.398;2022-12-18T16:41:59;32.90;;;18.37;;
13230;SDS011;6681;53.254;10.398;2022-12-18T16:44:29;36.90;;;20.57;;
13230;SDS011;6681;53.254;10.398;2022-12-18T16:46:54;35.83;;;20.13;;
13230;SDS011;6681;53.254;10.398;2022-12-18T16:49:26;34.10;;;18.10;;
13230;SDS011;6681;53.254;10.398;2022-12-18T16:51:52;26.87;;;17.60;;
13230;SDS011;6681;53.254;10.398;2022-12-18T16:54:18;30.50;;;18.10;;
13230;SDS011;6681;53.254;10.398;2022-12-18T16:56:44;32.63;;;17.70;;